sensor_id;sensor_type;location;lat;lon;timestamp;temperature;humidity
2327;DHT22;1174;51.588;7.328;2024-01-06T00:02:01;8.10;99.90
2327;DHT22;1174;51.588;7.328;2024-01-06T00:04:28;8.10;99.90
2327;DHT22;1174;51.588;7.328;2024-01-06T00:06:55;8.10;99.90
2327;DHT22;1174;51.588;7.328;2024-01-06T00:09:22;8.10;99.90
2327;DHT22;1174;51.588;7.328;2024-01-06T00:11:48;8.10;99.90
2327;DHT22;1174;51.588;7.328;2024-01-06T00:14:15;8.10;99.90
2327;DHT22;1174;51.588;7.328;2024-01-06T00:16:43;8.20;99.90
2327;DHT22;1174;51.588;7.328;2024-01-06T00:19:11;8.20;99.90
2327;DHT22;1174;51.588;7.328;2024-01-06T00:21:37;8.10;99.90
2327;DHT22;1174;51.588;7.328;2024-01-06T00:24:04;8.10;99.90
2327;DHT22;1174;51.588;7.328;2024-01-06T00:26:31;8.10;99.90
2327;DHT22;1174;51.588;7.328;2024-01-06T00:28:58;8.20;99.90
2327;DHT22;1174;51.588;7.328;2024-01-06T00:31:25;8.10;99.90
2327;DHT22;1174;51.588;7.328;2024-01-06T00:33:53;8.10;99.90
2327;DHT22;1174;51.588;7.328;2024-01-06T00:36:20;8.10;99.90
2327;DHT22;1174;51.588;7.328;2024-01-06T00:38:46;8.00;99.90
2327;DHT22;1174;51.588;7.328;2024-01-06T00:41:13;8.00;99.90
2327;DHT22;1174;51.588;7.328;2024-01-06T00:43:40;8.00;99.90
2327;DHT22;1174;51.588;7.328;2024-01-06T00:46:07;8.00;99.90
2327;DHT22;1174;51.588;7.328;2024-01-06T00:48:36;8.10;99.90
2327;DHT22;1174;51.588;7.328;2024-01-06T00:51:05;8.10;99.90
2327;DHT22;1174;51.588;7.328;2024-01-06T00:53:31;8.00;99.90
2327;DHT22;1174;51.588;7.328;2024-01-06T00:55:58;8.00;99.90
2327;DHT22;1174;51.588;7.328;2024-01-06T00:58:25;8.10;99.90
2327;DHT22;1174;51.588;7.328;2024-01-06T01:00:51;8.00;99.90
2327;DHT22;1174;51.588;7.328;2024-01-06T01:03:18;8.20;99.90
2327;DHT22;1174;51.588;7.328;2024-01-06T01:05:45;8.30;99.90
2327;DHT22;1174;51.588;7.328;2024-01-06T01:08:13;8.20;99.90
2327;DHT22;1174;51.588;7.328;2024-01-06T01:10:40;8.20;99.90
2327;DHT22;1174;51.588;7.328;2024-01-06T01:13:06;8.20;99.90
2327;DHT22;1174;51.588;7.328;2024-01-06T01:15:33;8.10;99.90
2327;DHT22;1174;51.588;7.328;2024-01-06T01:18:00;8.00;99.90
2327;DHT22;1174;51.588;7.328;2024-01-06T01:20:27;8.00;99.90
2327;DHT22;1174;51.588;7.328;2024-01-06T01:22:54;8.10;99.90
2327;DHT22;1174;51.588;7.328;2024-01-06T01:25:22;8.10;99.90
2327;DHT22;1174;51.588;7.328;2024-01-06T01:27:48;8.10;99.90
2327;DHT22;1174;51.588;7.328;2024-01-06T01:30:15;8.10;99.90
2327;DHT22;1174;51.588;7.328;2024-01-06T01:32:42;8.20;99.90
2327;DHT22;1174;51.588;7.328;2024-01-06T01:35:09;8.20;99.90
2327;DHT22;1174;51.588;7.328;2024-01-06T01:37:36;8.10;99.90
2327;DHT22;1174;51.588;7.328;2024-01-06T01:40:03;8.10;99.90
2327;DHT22;1174;51.588;7.328;2024-01-06T01:42:32;8.10;99.90
2327;DHT22;1174;51.588;7.328;2024-01-06T01:44:59;8.00;99.90
2327;DHT22;1174;51.588;7.328;2024-01-06T01:47:26;8.10;99.90
2327;DHT22;1174;51.588;7.328;2024-01-06T01:49:55;8.20;99.90
2327;DHT22;1174;51.588;7.328;2024-01-06T01:52:22;8.30;99.90
2327;DHT22;1174;51.588;7.328;2024-01-06T01:54:49;8.20;99.90
2327;DHT22;1174;51.588;7.328;2024-01-06T01:57:16;8.20;99.90
2327;DHT22;1174;51.588;7.328;2024-01-06T01:59:44;8.10;99.90
2327;DHT22;1174;51.588;7.328;2024-01-06T02:02:12;8.10;99.90
2327;DHT22;1174;51.588;7.328;2024-01-06T02:04:39;8.20;99.90
2327;DHT22;1174;51.588;7.328;2024-01-06T02:07:05;8.10;99.90
2327;DHT22;1174;51.588;7.328;2024-01-06T02:09:32;8.20;99.90
2327;DHT22;1174;51.588;7.328;2024-01-06T02:11:59;8.20;99.90
2327;DHT22;1174;51.588;7.328;2024-01-06T02:14:26;8.10;99.90
2327;DHT22;1174;51.588;7.328;2024-01-06T02:16:54;8.10;99.90
2327;DHT22;1174;51.588;7.328;2024-01-06T02:19:21;8.20;99.90
2327;DHT22;1174;51.588;7.328;2024-01-06T02:21:52;8.20;99.90
2327;DHT22;1174;51.588;7.328;2024-01-06T02:24:19;8.20;99.90
2327;DHT22;1174;51.588;7.328;2024-01-06T02:26:46;8.10;99.90
2327;DHT22;1174;51.588;7.328;2024-01-06T02:29:13;8.10;99.90
2327;DHT22;1174;51.588;7.328;2024-01-06T02:31:40;8.10;99.90
2327;DHT22;1174;51.588;7.328;2024-01-06T02:34:06;7.80;99.90
2327;DHT22;1174;51.588;7.328;2024-01-06T02:36:33;7.70;99.90
2327;DHT22;1174;51.588;7.328;2024-01-06T02:39:01;7.60;99.90
2327;DHT22;1174;51.588;7.328;2024-01-06T02:41:28;7.50;99.90
2327;DHT22;1174;51.588;7.328;2024-01-06T02:43:55;7.40;99.90
2327;DHT22;1174;51.588;7.328;2024-01-06T02:46:22;7.30;99.90
2327;DHT22;1174;51.588;7.328;2024-01-06T02:48:49;7.30;99.90
2327;DHT22;1174;51.588;7.328;2024-01-06T02:51:15;7.30;99.90
2327;DHT22;1174;51.588;7.328;2024-01-06T02:53:42;7.30;99.90
2327;DHT22;1174;51.588;7.328;2024-01-06T02:56:11;7.30;99.90
2327;DHT22;1174;51.588;7.328;2024-01-06T02:58:38;7.20;99.90
2327;DHT22;1174;51.588;7.328;2024-01-06T03:01:05;7.30;99.90
2327;DHT22;1174;51.588;7.328;2024-01-06T03:03:32;7.30;99.90
2327;DHT22;1174;51.588;7.328;2024-01-06T03:05:58;7.30;99.90
2327;DHT22;1174;51.588;7.328;2024-01-06T03:08:25;7.40;99.90
2327;DHT22;1174;51.588;7.328;2024-01-06T03:10:52;7.40;99.90
2327;DHT22;1174;51.588;7.328;2024-01-06T03:13:20;7.40;99.90
2327;DHT22;1174;51.588;7.328;2024-01-06T03:15:47;7.40;99.90
2327;DHT22;1174;51.588;7.328;2024-01-06T03:18:13;7.40;99.90
2327;DHT22;1174;51.588;7.328;2024-01-06T03:20:40;7.40;99.90
2327;DHT22;1174;51.588;7.328;2024-01-06T03:23:07;7.40;99.90
2327;DHT22;1174;51.588;7.328;2024-01-06T03:25:34;7.40;99.90
2327;DHT22;1174;51.588;7.328;2024-01-06T03:28:01;7.40;99.90
2327;DHT22;1174;51.588;7.328;2024-01-06T03:30:29;7.30;99.90
2327;DHT22;1174;51.588;7.328;2024-01-06T03:32:55;7.20;99.90
2327;DHT22;1174;51.588;7.328;2024-01-06T03:35:22;7.20;99.90
2327;DHT22;1174;51.588;7.328;2024-01-06T03:37:49;7.20;99.90
2327;DHT22;1174;51.588;7.328;2024-01-06T03:40:15;7.30;99.90
2327;DHT22;1174;51.588;7.328;2024-01-06T03:42:42;7.30;99.90
2327;DHT22;1174;51.588;7.328;2024-01-06T03:45:09;7.20;99.90
2327;DHT22;1174;51.588;7.328;2024-01-06T03:47:37;7.10;99.90
2327;DHT22;1174;51.588;7.328;2024-01-06T03:50:04;7.10;99.90
2327;DHT22;1174;51.588;7.328;2024-01-06T03:52:31;7.20;99.90
2327;DHT22;1174;51.588;7.328;2024-01-06T03:54:58;7.20;99.90
2327;DHT22;1174;51.588;7.328;2024-01-06T03:57:25;7.20;99.90
2327;DHT22;1174;51.588;7.328;2024-01-06T03:59:52;7.10;99.90
2327;DHT22;1174;51.588;7.328;2024-01-06T04:02:18;7.00;99.90
2327;DHT22;1174;51.588;7.328;2024-01-06T04:04:47;7.00;99.90
2327;DHT22;1174;51.588;7.328;2024-01-06T04:07:13;7.00;99.90
2327;DHT22;1174;51.588;7.328;2024-01-06T04:09:42;7.00;99.90
2327;DHT22;1174;51.588;7.328;2024-01-06T04:12:09;7.00;99.90
2327;DHT22;1174;51.588;7.328;2024-01-06T04:14:35;6.90;99.90
2327;DHT22;1174;51.588;7.328;2024-01-06T04:17:02;6.90;99.90
2327;DHT22;1174;51.588;7.328;2024-01-06T04:19:29;6.90;99.90
2327;DHT22;1174;51.588;7.328;2024-01-06T04:21:57;6.80;99.90
2327;DHT22;1174;51.588;7.328;2024-01-06T04:24:24;6.80;99.90
2327;DHT22;1174;51.588;7.328;2024-01-06T04:26:51;6.80;99.90
2327;DHT22;1174;51.588;7.328;2024-01-06T04:29:17;6.80;99.90
2327;DHT22;1174;51.588;7.328;2024-01-06T04:31:44;6.80;99.90
2327;DHT22;1174;51.588;7.328;2024-01-06T04:34:11;6.70;99.90
2327;DHT22;1174;51.588;7.328;2024-01-06T04:36:37;6.80;99.90
2327;DHT22;1174;51.588;7.328;2024-01-06T04:39:06;6.70;99.90
2327;DHT22;1174;51.588;7.328;2024-01-06T04:41:33;6.80;99.90
2327;DHT22;1174;51.588;7.328;2024-01-06T04:44:00;6.70;99.90
2327;DHT22;1174;51.588;7.328;2024-01-06T04:46:26;6.60;99.90
2327;DHT22;1174;51.588;7.328;2024-01-06T04:48:53;6.60;99.90
2327;DHT22;1174;51.588;7.328;2024-01-06T04:51:20;6.50;99.90
2327;DHT22;1174;51.588;7.328;2024-01-06T04:53:47;6.50;99.90
2327;DHT22;1174;51.588;7.328;2024-01-06T04:56:15;6.50;99.90
2327;DHT22;1174;51.588;7.328;2024-01-06T04:58:41;6.40;99.90
2327;DHT22;1174;51.588;7.328;2024-01-06T05:01:08;6.60;99.90
2327;DHT22;1174;51.588;7.328;2024-01-06T05:03:35;6.60;99.90
2327;DHT22;1174;51.588;7.328;2024-01-06T05:06:02;6.60;99.90
2327;DHT22;1174;51.588;7.328;2024-01-06T05:08:29;6.60;99.90
2327;DHT22;1174;51.588;7.328;2024-01-06T05:10:56;6.60;99.90
2327;DHT22;1174;51.588;7.328;2024-01-06T05:13:24;6.60;99.90
2327;DHT22;1174;51.588;7.328;2024-01-06T05:15:51;6.60;99.90
2327;DHT22;1174;51.588;7.328;2024-01-06T05:18:18;6.50;99.90
2327;DHT22;1174;51.588;7.328;2024-01-06T05:20:44;6.50;99.90
2327;DHT22;1174;51.588;7.328;2024-01-06T05:23:11;6.40;99.90
2327;DHT22;1174;51.588;7.328;2024-01-06T05:25:38;6.40;99.90
2327;DHT22;1174;51.588;7.328;2024-01-06T05:28:05;6.50;99.90
2327;DHT22;1174;51.588;7.328;2024-01-06T05:30:33;6.40;99.90
2327;DHT22;1174;51.588;7.328;2024-01-06T05:33:00;6.40;99.90
2327;DHT22;1174;51.588;7.328;2024-01-06T05:35:27;6.30;99.90
2327;DHT22;1174;51.588;7.328;2024-01-06T05:37:54;6.30;99.90
2327;DHT22;1174;51.588;7.328;2024-01-06T05:40:20;6.30;99.90
2327;DHT22;1174;51.588;7.328;2024-01-06T05:42:46;6.30;99.90
2327;DHT22;1174;51.588;7.328;2024-01-06T05:45:13;6.40;99.90
2327;DHT22;1174;51.588;7.328;2024-01-06T05:47:41;6.20;99.90
2327;DHT22;1174;51.588;7.328;2024-01-06T05:50:08;6.40;99.90
2327;DHT22;1174;51.588;7.328;2024-01-06T05:52:35;6.40;99.90
2327;DHT22;1174;51.588;7.328;2024-01-06T05:55:03;6.50;99.90
2327;DHT22;1174;51.588;7.328;2024-01-06T05:57:30;6.50;99.90
2327;DHT22;1174;51.588;7.328;2024-01-06T05:59:57;6.60;99.90
2327;DHT22;1174;51.588;7.328;2024-01-06T06:02:23;6.50;99.90
2327;DHT22;1174;51.588;7.328;2024-01-06T06:04:51;6.60;99.90
2327;DHT22;1174;51.588;7.328;2024-01-06T06:07:18;6.50;99.90
2327;DHT22;1174;51.588;7.328;2024-01-06T06:09:46;6.40;99.90
2327;DHT22;1174;51.588;7.328;2024-01-06T06:12:13;6.40;99.90
2327;DHT22;1174;51.588;7.328;2024-01-06T06:14:40;6.20;99.90
2327;DHT22;1174;51.588;7.328;2024-01-06T06:17:06;6.10;99.90
2327;DHT22;1174;51.588;7.328;2024-01-06T06:19:33;6.10;99.90
2327;DHT22;1174;51.588;7.328;2024-01-06T06:22:01;6.10;99.90
2327;DHT22;1174;51.588;7.328;2024-01-06T06:24:28;6.00;99.90
2327;DHT22;1174;51.588;7.328;2024-01-06T06:26:55;6.00;99.90
2327;DHT22;1174;51.588;7.328;2024-01-06T06:29:21;6.10;99.90
2327;DHT22;1174;51.588;7.328;2024-01-06T06:31:48;6.10;99.90
2327;DHT22;1174;51.588;7.328;2024-01-06T06:34:15;6.10;99.90
2327;DHT22;1174;51.588;7.328;2024-01-06T06:36:42;6.10;99.90
2327;DHT22;1174;51.588;7.328;2024-01-06T06:39:10;6.10;99.90
2327;DHT22;1174;51.588;7.328;2024-01-06T06:41:37;6.00;99.90
2327;DHT22;1174;51.588;7.328;2024-01-06T06:44:04;6.10;99.90
2327;DHT22;1174;51.588;7.328;2024-01-06T06:46:30;6.10;99.90
2327;DHT22;1174;51.588;7.328;2024-01-06T06:48:57;6.10;99.90
2327;DHT22;1174;51.588;7.328;2024-01-06T06:51:24;5.90;99.90
2327;DHT22;1174;51.588;7.328;2024-01-06T06:53:52;5.90;99.90
2327;DHT22;1174;51.588;7.328;2024-01-06T06:56:20;5.90;99.90
2327;DHT22;1174;51.588;7.328;2024-01-06T06:58:47;6.00;99.90
2327;DHT22;1174;51.588;7.328;2024-01-06T07:01:14;5.90;99.90
2327;DHT22;1174;51.588;7.328;2024-01-06T07:03:41;5.80;99.90
2327;DHT22;1174;51.588;7.328;2024-01-06T07:06:08;5.80;99.90
2327;DHT22;1174;51.588;7.328;2024-01-06T07:08:38;5.80;99.90
2327;DHT22;1174;51.588;7.328;2024-01-06T07:11:04;5.90;99.90
2327;DHT22;1174;51.588;7.328;2024-01-06T07:13:33;5.80;99.90
2327;DHT22;1174;51.588;7.328;2024-01-06T07:15:59;5.80;99.90
2327;DHT22;1174;51.588;7.328;2024-01-06T07:18:26;5.70;99.90
2327;DHT22;1174;51.588;7.328;2024-01-06T07:20:53;5.70;99.90
2327;DHT22;1174;51.588;7.328;2024-01-06T07:23:19;5.60;99.90
2327;DHT22;1174;51.588;7.328;2024-01-06T07:25:46;5.60;99.90
2327;DHT22;1174;51.588;7.328;2024-01-06T07:28:13;5.50;99.90
2327;DHT22;1174;51.588;7.328;2024-01-06T07:30:41;5.60;99.90
2327;DHT22;1174;51.588;7.328;2024-01-06T07:33:08;5.40;99.90
2327;DHT22;1174;51.588;7.328;2024-01-06T07:35:36;5.30;99.90
2327;DHT22;1174;51.588;7.328;2024-01-06T07:38:08;5.30;99.90
2327;DHT22;1174;51.588;7.328;2024-01-06T07:40:35;5.30;99.90
2327;DHT22;1174;51.588;7.328;2024-01-06T07:43:02;5.30;99.90
2327;DHT22;1174;51.588;7.328;2024-01-06T07:45:29;5.30;99.90
2327;DHT22;1174;51.588;7.328;2024-01-06T07:47:58;5.30;99.90
2327;DHT22;1174;51.588;7.328;2024-01-06T07:50:25;5.20;99.90
2327;DHT22;1174;51.588;7.328;2024-01-06T07:52:52;5.30;99.90
2327;DHT22;1174;51.588;7.328;2024-01-06T07:55:18;5.30;99.90
2327;DHT22;1174;51.588;7.328;2024-01-06T07:57:45;5.30;99.90
2327;DHT22;1174;51.588;7.328;2024-01-06T08:00:13;5.40;99.90
2327;DHT22;1174;51.588;7.328;2024-01-06T08:02:40;5.50;99.90
2327;DHT22;1174;51.588;7.328;2024-01-06T08:05:08;5.50;99.90
2327;DHT22;1174;51.588;7.328;2024-01-06T08:07:35;5.40;99.90
2327;DHT22;1174;51.588;7.328;2024-01-06T08:10:02;5.40;99.90
2327;DHT22;1174;51.588;7.328;2024-01-06T08:12:30;5.40;99.90
2327;DHT22;1174;51.588;7.328;2024-01-06T08:14:57;5.40;99.90
2327;DHT22;1174;51.588;7.328;2024-01-06T08:17:23;5.30;99.90
2327;DHT22;1174;51.588;7.328;2024-01-06T08:19:50;5.30;99.90
2327;DHT22;1174;51.588;7.328;2024-01-06T08:22:18;5.40;99.90
2327;DHT22;1174;51.588;7.328;2024-01-06T08:24:45;5.40;99.90
2327;DHT22;1174;51.588;7.328;2024-01-06T08:27:12;5.30;99.90
2327;DHT22;1174;51.588;7.328;2024-01-06T08:29:39;5.40;99.90
2327;DHT22;1174;51.588;7.328;2024-01-06T08:32:06;5.30;99.90
2327;DHT22;1174;51.588;7.328;2024-01-06T08:34:33;5.30;99.90
2327;DHT22;1174;51.588;7.328;2024-01-06T08:37:00;5.40;99.90
2327;DHT22;1174;51.588;7.328;2024-01-06T08:39:28;5.30;99.90
2327;DHT22;1174;51.588;7.328;2024-01-06T08:41:55;5.30;99.90
2327;DHT22;1174;51.588;7.328;2024-01-06T08:44:21;5.30;99.90
2327;DHT22;1174;51.588;7.328;2024-01-06T08:46:50;5.30;99.90
2327;DHT22;1174;51.588;7.328;2024-01-06T08:49:17;5.20;99.90
2327;DHT22;1174;51.588;7.328;2024-01-06T08:51:44;5.30;99.90
2327;DHT22;1174;51.588;7.328;2024-01-06T08:54:11;5.30;99.90
2327;DHT22;1174;51.588;7.328;2024-01-06T08:56:39;5.40;99.90
2327;DHT22;1174;51.588;7.328;2024-01-06T08:59:06;5.30;99.90
2327;DHT22;1174;51.588;7.328;2024-01-06T09:01:32;5.20;99.90
2327;DHT22;1174;51.588;7.328;2024-01-06T09:04:01;5.30;99.90
2327;DHT22;1174;51.588;7.328;2024-01-06T09:06:28;5.20;99.90
2327;DHT22;1174;51.588;7.328;2024-01-06T09:08:55;5.20;99.90
2327;DHT22;1174;51.588;7.328;2024-01-06T09:11:21;5.20;99.90
2327;DHT22;1174;51.588;7.328;2024-01-06T09:13:49;5.20;99.90
2327;DHT22;1174;51.588;7.328;2024-01-06T09:16:18;5.20;99.90
2327;DHT22;1174;51.588;7.328;2024-01-06T09:18:44;5.30;99.90
2327;DHT22;1174;51.588;7.328;2024-01-06T09:21:11;5.30;99.90
2327;DHT22;1174;51.588;7.328;2024-01-06T09:23:38;5.20;99.90
2327;DHT22;1174;51.588;7.328;2024-01-06T09:26:05;5.30;99.90
2327;DHT22;1174;51.588;7.328;2024-01-06T09:28:32;5.40;99.90
2327;DHT22;1174;51.588;7.328;2024-01-06T09:31:00;5.50;99.90
2327;DHT22;1174;51.588;7.328;2024-01-06T09:33:27;5.70;99.90
2327;DHT22;1174;51.588;7.328;2024-01-06T09:35:53;5.60;99.90
2327;DHT22;1174;51.588;7.328;2024-01-06T09:38:20;5.60;99.90
2327;DHT22;1174;51.588;7.328;2024-01-06T09:40:48;5.60;99.90
2327;DHT22;1174;51.588;7.328;2024-01-06T09:43:15;5.50;99.90
2327;DHT22;1174;51.588;7.328;2024-01-06T09:45:42;5.40;99.90
2327;DHT22;1174;51.588;7.328;2024-01-06T09:48:12;5.40;99.90
2327;DHT22;1174;51.588;7.328;2024-01-06T09:50:41;5.30;99.90
2327;DHT22;1174;51.588;7.328;2024-01-06T09:53:10;5.40;99.90
2327;DHT22;1174;51.588;7.328;2024-01-06T09:55:38;5.30;99.90
2327;DHT22;1174;51.588;7.328;2024-01-06T09:58:05;5.40;99.90
2327;DHT22;1174;51.588;7.328;2024-01-06T10:00:32;5.40;99.90
2327;DHT22;1174;51.588;7.328;2024-01-06T10:02:58;5.30;99.90
2327;DHT22;1174;51.588;7.328;2024-01-06T10:05:27;5.50;99.90
2327;DHT22;1174;51.588;7.328;2024-01-06T10:07:53;5.30;99.90
2327;DHT22;1174;51.588;7.328;2024-01-06T10:10:22;5.40;99.90
2327;DHT22;1174;51.588;7.328;2024-01-06T10:12:52;5.40;99.90
2327;DHT22;1174;51.588;7.328;2024-01-06T10:15:20;5.40;99.90
2327;DHT22;1174;51.588;7.328;2024-01-06T10:17:46;5.40;99.90
2327;DHT22;1174;51.588;7.328;2024-01-06T10:20:13;5.40;99.90
2327;DHT22;1174;51.588;7.328;2024-01-06T10:22:42;5.40;99.90
2327;DHT22;1174;51.588;7.328;2024-01-06T10:25:10;5.40;99.90
2327;DHT22;1174;51.588;7.328;2024-01-06T10:27:38;5.30;99.90
2327;DHT22;1174;51.588;7.328;2024-01-06T10:30:06;5.40;99.90
2327;DHT22;1174;51.588;7.328;2024-01-06T10:32:33;5.30;99.90
2327;DHT22;1174;51.588;7.328;2024-01-06T10:35:01;5.40;99.90
2327;DHT22;1174;51.588;7.328;2024-01-06T10:37:29;5.40;99.90
2327;DHT22;1174;51.588;7.328;2024-01-06T10:40:08;5.40;99.90
2327;DHT22;1174;51.588;7.328;2024-01-06T10:42:36;5.40;99.90
2327;DHT22;1174;51.588;7.328;2024-01-06T10:45:06;5.40;99.90
2327;DHT22;1174;51.588;7.328;2024-01-06T10:47:35;5.50;99.90
2327;DHT22;1174;51.588;7.328;2024-01-06T10:50:02;5.50;99.90
2327;DHT22;1174;51.588;7.328;2024-01-06T10:52:30;5.30;99.90
2327;DHT22;1174;51.588;7.328;2024-01-06T10:54:58;5.20;99.90
2327;DHT22;1174;51.588;7.328;2024-01-06T10:57:27;5.20;99.90
2327;DHT22;1174;51.588;7.328;2024-01-06T10:59:58;5.10;99.90
2327;DHT22;1174;51.588;7.328;2024-01-06T11:02:25;5.00;99.90
2327;DHT22;1174;51.588;7.328;2024-01-06T11:04:52;4.90;99.90
2327;DHT22;1174;51.588;7.328;2024-01-06T11:07:20;4.80;99.90
2327;DHT22;1174;51.588;7.328;2024-01-06T11:09:50;4.90;99.90
2327;DHT22;1174;51.588;7.328;2024-01-06T11:12:19;4.90;99.90
2327;DHT22;1174;51.588;7.328;2024-01-06T11:14:47;5.00;99.90
2327;DHT22;1174;51.588;7.328;2024-01-06T11:17:49;5.00;99.90
2327;DHT22;1174;51.588;7.328;2024-01-06T11:20:18;5.00;99.90
2327;DHT22;1174;51.588;7.328;2024-01-06T11:22:45;4.80;99.90
2327;DHT22;1174;51.588;7.328;2024-01-06T11:25:14;4.90;99.90
2327;DHT22;1174;51.588;7.328;2024-01-06T11:27:43;5.00;99.90
2327;DHT22;1174;51.588;7.328;2024-01-06T11:30:21;4.90;99.90
2327;DHT22;1174;51.588;7.328;2024-01-06T11:32:49;5.00;99.90
2327;DHT22;1174;51.588;7.328;2024-01-06T11:35:18;5.00;99.90
2327;DHT22;1174;51.588;7.328;2024-01-06T11:37:53;4.90;99.90
2327;DHT22;1174;51.588;7.328;2024-01-06T11:40:25;5.00;99.90
2327;DHT22;1174;51.588;7.328;2024-01-06T11:43:03;4.80;99.90
2327;DHT22;1174;51.588;7.328;2024-01-06T11:45:32;4.80;99.90
2327;DHT22;1174;51.588;7.328;2024-01-06T11:48:00;4.80;99.90
2327;DHT22;1174;51.588;7.328;2024-01-06T11:50:28;4.80;99.90
2327;DHT22;1174;51.588;7.328;2024-01-06T11:52:55;4.90;99.90
2327;DHT22;1174;51.588;7.328;2024-01-06T11:55:22;4.80;99.90
2327;DHT22;1174;51.588;7.328;2024-01-06T11:57:49;4.70;99.90
2327;DHT22;1174;51.588;7.328;2024-01-06T12:00:17;4.80;99.90
2327;DHT22;1174;51.588;7.328;2024-01-06T12:02:45;4.80;99.90
2327;DHT22;1174;51.588;7.328;2024-01-06T12:05:16;4.80;99.90
2327;DHT22;1174;51.588;7.328;2024-01-06T12:07:44;4.80;99.90
2327;DHT22;1174;51.588;7.328;2024-01-06T12:10:20;4.80;99.90
2327;DHT22;1174;51.588;7.328;2024-01-06T12:12:55;4.80;99.90
2327;DHT22;1174;51.588;7.328;2024-01-06T12:15:23;4.80;99.90
2327;DHT22;1174;51.588;7.328;2024-01-06T12:17:52;4.70;99.90
2327;DHT22;1174;51.588;7.328;2024-01-06T12:20:18;4.70;99.90
2327;DHT22;1174;51.588;7.328;2024-01-06T12:22:46;4.80;99.90
2327;DHT22;1174;51.588;7.328;2024-01-06T12:25:14;4.80;99.90
2327;DHT22;1174;51.588;7.328;2024-01-06T12:27:42;4.80;99.90
2327;DHT22;1174;51.588;7.328;2024-01-06T12:30:12;4.80;99.90
2327;DHT22;1174;51.588;7.328;2024-01-06T12:32:41;4.90;99.90
2327;DHT22;1174;51.588;7.328;2024-01-06T12:35:09;4.90;99.90
2327;DHT22;1174;51.588;7.328;2024-01-06T12:37:37;4.90;99.90
2327;DHT22;1174;51.588;7.328;2024-01-06T12:40:04;4.80;99.90
2327;DHT22;1174;51.588;7.328;2024-01-06T12:42:31;4.70;99.90
2327;DHT22;1174;51.588;7.328;2024-01-06T12:44:58;4.80;99.90
2327;DHT22;1174;51.588;7.328;2024-01-06T12:47:25;4.70;99.90
2327;DHT22;1174;51.588;7.328;2024-01-06T12:49:52;4.60;99.90
2327;DHT22;1174;51.588;7.328;2024-01-06T12:52:20;4.50;99.90
2327;DHT22;1174;51.588;7.328;2024-01-06T12:54:46;4.40;99.90
2327;DHT22;1174;51.588;7.328;2024-01-06T12:57:13;4.40;99.90
2327;DHT22;1174;51.588;7.328;2024-01-06T12:59:40;4.40;99.90
2327;DHT22;1174;51.588;7.328;2024-01-06T13:02:07;4.40;99.90
2327;DHT22;1174;51.588;7.328;2024-01-06T13:04:33;4.50;99.90
2327;DHT22;1174;51.588;7.328;2024-01-06T13:07:01;4.30;99.90
2327;DHT22;1174;51.588;7.328;2024-01-06T13:09:29;4.30;99.90
2327;DHT22;1174;51.588;7.328;2024-01-06T13:11:56;4.30;99.90
2327;DHT22;1174;51.588;7.328;2024-01-06T13:14:25;4.40;99.90
2327;DHT22;1174;51.588;7.328;2024-01-06T13:16:52;4.50;99.90
2327;DHT22;1174;51.588;7.328;2024-01-06T13:19:19;4.50;99.90
2327;DHT22;1174;51.588;7.328;2024-01-06T13:21:46;4.40;99.90
2327;DHT22;1174;51.588;7.328;2024-01-06T13:24:13;4.30;99.90
2327;DHT22;1174;51.588;7.328;2024-01-06T13:26:42;4.40;99.90
2327;DHT22;1174;51.588;7.328;2024-01-06T13:29:08;4.40;99.90
2327;DHT22;1174;51.588;7.328;2024-01-06T13:31:35;4.40;99.90
2327;DHT22;1174;51.588;7.328;2024-01-06T13:34:02;4.30;99.90
2327;DHT22;1174;51.588;7.328;2024-01-06T13:36:29;4.40;99.90
2327;DHT22;1174;51.588;7.328;2024-01-06T13:38:56;4.40;99.90
2327;DHT22;1174;51.588;7.328;2024-01-06T13:41:25;4.50;99.90
2327;DHT22;1174;51.588;7.328;2024-01-06T13:43:53;4.40;99.90
2327;DHT22;1174;51.588;7.328;2024-01-06T13:46:20;4.40;99.90
2327;DHT22;1174;51.588;7.328;2024-01-06T13:48:47;4.40;99.90
2327;DHT22;1174;51.588;7.328;2024-01-06T13:51:14;4.50;99.90
2327;DHT22;1174;51.588;7.328;2024-01-06T13:53:40;4.50;99.90
2327;DHT22;1174;51.588;7.328;2024-01-06T13:56:07;4.50;99.90
2327;DHT22;1174;51.588;7.328;2024-01-06T13:58:34;4.40;99.90
2327;DHT22;1174;51.588;7.328;2024-01-06T14:01:04;4.40;99.90
2327;DHT22;1174;51.588;7.328;2024-01-06T14:03:30;4.40;99.90
2327;DHT22;1174;51.588;7.328;2024-01-06T14:05:58;4.30;99.90
2327;DHT22;1174;51.588;7.328;2024-01-06T14:08:25;4.30;99.90
2327;DHT22;1174;51.588;7.328;2024-01-06T14:10:51;4.50;99.90
2327;DHT22;1174;51.588;7.328;2024-01-06T14:13:20;4.60;99.90
2327;DHT22;1174;51.588;7.328;2024-01-06T14:15:46;4.50;99.90
2327;DHT22;1174;51.588;7.328;2024-01-06T14:18:15;4.40;99.90
2327;DHT22;1174;51.588;7.328;2024-01-06T14:20:42;4.30;99.90
2327;DHT22;1174;51.588;7.328;2024-01-06T14:23:08;4.40;99.90
2327;DHT22;1174;51.588;7.328;2024-01-06T14:25:36;4.30;99.90
2327;DHT22;1174;51.588;7.328;2024-01-06T14:28:03;4.30;99.90
2327;DHT22;1174;51.588;7.328;2024-01-06T14:30:31;4.30;99.90
2327;DHT22;1174;51.588;7.328;2024-01-06T14:32:58;4.20;99.90
2327;DHT22;1174;51.588;7.328;2024-01-06T14:35:26;4.10;99.90
2327;DHT22;1174;51.588;7.328;2024-01-06T14:37:53;4.10;99.90
2327;DHT22;1174;51.588;7.328;2024-01-06T14:40:20;4.00;99.90
2327;DHT22;1174;51.588;7.328;2024-01-06T14:42:47;4.00;99.90
2327;DHT22;1174;51.588;7.328;2024-01-06T14:45:14;4.20;99.90
2327;DHT22;1174;51.588;7.328;2024-01-06T14:47:41;4.20;99.90
2327;DHT22;1174;51.588;7.328;2024-01-06T14:50:08;4.20;99.90
2327;DHT22;1174;51.588;7.328;2024-01-06T14:52:36;4.20;99.90
2327;DHT22;1174;51.588;7.328;2024-01-06T14:55:03;4.10;99.90
2327;DHT22;1174;51.588;7.328;2024-01-06T14:57:30;4.20;99.90
2327;DHT22;1174;51.588;7.328;2024-01-06T14:59:57;4.20;99.90
2327;DHT22;1174;51.588;7.328;2024-01-06T15:02:24;4.20;99.90
2327;DHT22;1174;51.588;7.328;2024-01-06T15:04:50;4.10;99.90
2327;DHT22;1174;51.588;7.328;2024-01-06T15:07:18;4.00;99.90
2327;DHT22;1174;51.588;7.328;2024-01-06T15:09:46;4.00;99.90
2327;DHT22;1174;51.588;7.328;2024-01-06T15:12:13;4.00;99.90
2327;DHT22;1174;51.588;7.328;2024-01-06T15:14:41;4.00;99.90
2327;DHT22;1174;51.588;7.328;2024-01-06T15:17:07;4.00;99.90
2327;DHT22;1174;51.588;7.328;2024-01-06T15:19:35;3.90;99.90
2327;DHT22;1174;51.588;7.328;2024-01-06T15:22:03;3.80;99.90
2327;DHT22;1174;51.588;7.328;2024-01-06T15:24:30;3.80;99.90
2327;DHT22;1174;51.588;7.328;2024-01-06T15:26:58;3.90;99.90
2327;DHT22;1174;51.588;7.328;2024-01-06T15:29:25;4.00;99.90
2327;DHT22;1174;51.588;7.328;2024-01-06T15:31:51;3.90;99.90
2327;DHT22;1174;51.588;7.328;2024-01-06T15:34:22;3.80;99.90
2327;DHT22;1174;51.588;7.328;2024-01-06T15:36:49;3.70;99.90
2327;DHT22;1174;51.588;7.328;2024-01-06T15:39:16;3.80;99.90
2327;DHT22;1174;51.588;7.328;2024-01-06T15:41:42;3.90;99.90
2327;DHT22;1174;51.588;7.328;2024-01-06T15:44:10;4.00;99.90
2327;DHT22;1174;51.588;7.328;2024-01-06T15:46:37;3.80;99.90
2327;DHT22;1174;51.588;7.328;2024-01-06T15:49:04;3.80;99.90
2327;DHT22;1174;51.588;7.328;2024-01-06T15:51:31;3.90;99.90
2327;DHT22;1174;51.588;7.328;2024-01-06T15:53:57;4.00;99.90
2327;DHT22;1174;51.588;7.328;2024-01-06T15:56:24;4.10;99.90
2327;DHT22;1174;51.588;7.328;2024-01-06T15:58:51;4.10;99.90
2327;DHT22;1174;51.588;7.328;2024-01-06T16:01:21;4.20;99.90
2327;DHT22;1174;51.588;7.328;2024-01-06T16:03:47;4.20;99.90
2327;DHT22;1174;51.588;7.328;2024-01-06T16:06:14;4.10;99.90
2327;DHT22;1174;51.588;7.328;2024-01-06T16:08:41;4.00;99.90
2327;DHT22;1174;51.588;7.328;2024-01-06T16:11:07;4.00;99.90
2327;DHT22;1174;51.588;7.328;2024-01-06T16:13:34;4.00;99.90
2327;DHT22;1174;51.588;7.328;2024-01-06T16:16:02;4.00;99.90
2327;DHT22;1174;51.588;7.328;2024-01-06T16:18:30;3.90;99.90